EFMA

Mariehamn Airport

Finland
METAR EFMA 181550Z AUTO 24007KT 200V280 6000 -PL OVC005 01/00 Q1018
Observed Flight Rules
Dec-18 @ 15:50 UTC (33 minutes ago) Instrument Flight Rules
Wind Visibility Clouds
240° at 7 knots 6,003 meters
  • Overcast at 500' AGL
Temperatures Readings
Current 1°C / 34°F
Dewpoint 0°C / 32°F
Humidity 93%
Altimeter 30.06" Hg
Pressure 1018 hPa
Elevation 6
METAR EFMA 181550Z AUTO 24007KT 200V280 6000 -PL OVC005 01/00 Q1018
Observed Flight Rules
Dec-18 @ 15:50 UTC
(33 minutes ago)
IFR
Wind Visibility
240° at 7 knots 6,003 meters
Clouds
  • Overcast at 500' AGL
Temperature Dewpoint
1°C / 34°F 0°C / 32°F
Humidity Altimeter Pressure
93% 30.06" Hg 1018 hPa